sensor_id;sensor_type;location;lat;lon;timestamp;temperature;humidity
59309;DHT22;48433;53.016;-2.260;2023-08-24T00:03:01;19.20;99.90
59309;DHT22;48433;53.016;-2.260;2023-08-24T00:05:34;19.20;99.90
59309;DHT22;48433;53.016;-2.260;2023-08-24T00:08:06;19.10;99.90
59309;DHT22;48433;53.016;-2.260;2023-08-24T00:10:35;19.20;99.90
59309;DHT22;48433;53.016;-2.260;2023-08-24T00:15:31;19.20;99.90
59309;DHT22;48433;53.016;-2.260;2023-08-24T00:25:23;19.20;99.90
59309;DHT22;48433;53.016;-2.260;2023-08-24T00:30:22;19.30;99.90
59309;DHT22;48433;53.016;-2.260;2023-08-24T00:32:50;19.20;99.90
59309;DHT22;48433;53.016;-2.260;2023-08-24T00:42:44;19.40;99.90
59309;DHT22;48433;53.016;-2.260;2023-08-24T00:47:44;19.40;99.90
59309;DHT22;48433;53.016;-2.260;2023-08-24T00:50:13;19.40;99.90
59309;DHT22;48433;53.016;-2.260;2023-08-24T00:52:42;19.40;99.90
59309;DHT22;48433;53.016;-2.260;2023-08-24T00:57:40;19.40;99.90
59309;DHT22;48433;53.016;-2.260;2023-08-24T01:07:37;19.30;99.90
59309;DHT22;48433;53.016;-2.260;2023-08-24T01:10:10;19.30;99.90
59309;DHT22;48433;53.016;-2.260;2023-08-24T01:12:42;19.20;99.90
59309;DHT22;48433;53.016;-2.260;2023-08-24T01:15:26;19.30;99.90
59309;DHT22;48433;53.016;-2.260;2023-08-24T01:18:04;19.30;99.90
59309;DHT22;48433;53.016;-2.260;2023-08-24T01:20:34;19.40;99.90
59309;DHT22;48433;53.016;-2.260;2023-08-24T01:25:51;19.40;99.90
59309;DHT22;48433;53.016;-2.260;2023-08-24T01:28:20;19.40;99.90
59309;DHT22;48433;53.016;-2.260;2023-08-24T01:43:26;19.50;99.90
59309;DHT22;48433;53.016;-2.260;2023-08-24T01:46:12;19.40;99.90
59309;DHT22;48433;53.016;-2.260;2023-08-24T01:48:43;19.40;99.90
59309;DHT22;48433;53.016;-2.260;2023-08-24T01:53:42;19.40;99.90
59309;DHT22;48433;53.016;-2.260;2023-08-24T01:56:13;19.40;99.90
59309;DHT22;48433;53.016;-2.260;2023-08-24T01:58:42;19.30;99.90
59309;DHT22;48433;53.016;-2.260;2023-08-24T02:01:10;19.30;99.90
59309;DHT22;48433;53.016;-2.260;2023-08-24T02:06:08;19.40;99.90
59309;DHT22;48433;53.016;-2.260;2023-08-24T02:08:35;19.40;99.90
59309;DHT22;48433;53.016;-2.260;2023-08-24T02:11:03;19.40;99.90
59309;DHT22;48433;53.016;-2.260;2023-08-24T02:16:04;19.40;99.90
59309;DHT22;48433;53.016;-2.260;2023-08-24T02:21:07;19.30;99.90
59309;DHT22;48433;53.016;-2.260;2023-08-24T02:28:32;19.30;99.90
59309;DHT22;48433;53.016;-2.260;2023-08-24T02:31:01;19.30;99.90
59309;DHT22;48433;53.016;-2.260;2023-08-24T02:33:30;19.30;99.90
59309;DHT22;48433;53.016;-2.260;2023-08-24T02:35:58;19.30;99.90
59309;DHT22;48433;53.016;-2.260;2023-08-24T02:38:25;19.30;99.90
59309;DHT22;48433;53.016;-2.260;2023-08-24T02:41:07;19.30;99.90
59309;DHT22;48433;53.016;-2.260;2023-08-24T02:43:35;19.30;99.90
59309;DHT22;48433;53.016;-2.260;2023-08-24T02:46:06;19.30;99.90
59309;DHT22;48433;53.016;-2.260;2023-08-24T02:48:35;19.30;99.90
59309;DHT22;48433;53.016;-2.260;2023-08-24T02:51:04;19.30;99.90
59309;DHT22;48433;53.016;-2.260;2023-08-24T02:53:32;19.30;99.90
59309;DHT22;48433;53.016;-2.260;2023-08-24T02:56:00;19.30;99.90
59309;DHT22;48433;53.016;-2.260;2023-08-24T02:58:29;19.30;99.90
59309;DHT22;48433;53.016;-2.260;2023-08-24T03:00:57;19.40;99.90
59309;DHT22;48433;53.016;-2.260;2023-08-24T03:03:25;19.40;99.90
59309;DHT22;48433;53.016;-2.260;2023-08-24T03:05:57;19.30;99.90
59309;DHT22;48433;53.016;-2.260;2023-08-24T03:08:29;19.30;99.90
59309;DHT22;48433;53.016;-2.260;2023-08-24T03:10:58;19.30;99.90
59309;DHT22;48433;53.016;-2.260;2023-08-24T03:13:28;19.30;99.90
59309;DHT22;48433;53.016;-2.260;2023-08-24T03:15:56;19.30;99.90
59309;DHT22;48433;53.016;-2.260;2023-08-24T03:18:27;19.20;99.90
59309;DHT22;48433;53.016;-2.260;2023-08-24T03:20:55;19.20;99.90
59309;DHT22;48433;53.016;-2.260;2023-08-24T03:23:23;19.20;99.90
59309;DHT22;48433;53.016;-2.260;2023-08-24T03:25:50;19.20;99.90
59309;DHT22;48433;53.016;-2.260;2023-08-24T03:28:18;19.10;99.90
59309;DHT22;48433;53.016;-2.260;2023-08-24T03:30:51;19.20;99.90
59309;DHT22;48433;53.016;-2.260;2023-08-24T03:33:20;19.10;99.90
59309;DHT22;48433;53.016;-2.260;2023-08-24T03:35:48;19.10;99.90
59309;DHT22;48433;53.016;-2.260;2023-08-24T03:38:16;19.00;99.90
59309;DHT22;48433;53.016;-2.260;2023-08-24T03:40:44;19.00;99.90
59309;DHT22;48433;53.016;-2.260;2023-08-24T03:43:12;19.00;99.90
59309;DHT22;48433;53.016;-2.260;2023-08-24T03:45:42;19.00;99.90
59309;DHT22;48433;53.016;-2.260;2023-08-24T03:48:10;18.90;99.90
59309;DHT22;48433;53.016;-2.260;2023-08-24T03:50:38;18.90;99.90
59309;DHT22;48433;53.016;-2.260;2023-08-24T03:53:06;18.90;99.90
59309;DHT22;48433;53.016;-2.260;2023-08-24T03:55:34;18.90;99.90
59309;DHT22;48433;53.016;-2.260;2023-08-24T03:58:02;18.80;99.90
59309;DHT22;48433;53.016;-2.260;2023-08-24T04:00:30;18.80;99.90
59309;DHT22;48433;53.016;-2.260;2023-08-24T04:03:00;18.80;99.90
59309;DHT22;48433;53.016;-2.260;2023-08-24T04:05:28;18.80;99.90
59309;DHT22;48433;53.016;-2.260;2023-08-24T04:07:56;18.70;99.90
59309;DHT22;48433;53.016;-2.260;2023-08-24T04:10:25;18.80;99.90
59309;DHT22;48433;53.016;-2.260;2023-08-24T04:12:53;18.70;99.90
59309;DHT22;48433;53.016;-2.260;2023-08-24T04:15:20;18.80;99.90
59309;DHT22;48433;53.016;-2.260;2023-08-24T04:17:50;18.80;99.90
59309;DHT22;48433;53.016;-2.260;2023-08-24T04:20:18;18.80;99.90
59309;DHT22;48433;53.016;-2.260;2023-08-24T04:22:45;18.80;99.90
59309;DHT22;48433;53.016;-2.260;2023-08-24T04:25:13;18.80;99.90
59309;DHT22;48433;53.016;-2.260;2023-08-24T04:27:41;18.80;99.90
59309;DHT22;48433;53.016;-2.260;2023-08-24T04:30:09;18.80;99.90
59309;DHT22;48433;53.016;-2.260;2023-08-24T04:32:39;18.70;99.90
59309;DHT22;48433;53.016;-2.260;2023-08-24T04:35:07;18.80;99.90
59309;DHT22;48433;53.016;-2.260;2023-08-24T04:37:35;18.70;99.90
59309;DHT22;48433;53.016;-2.260;2023-08-24T04:40:03;18.70;99.90
59309;DHT22;48433;53.016;-2.260;2023-08-24T04:42:31;18.70;99.90
59309;DHT22;48433;53.016;-2.260;2023-08-24T04:44:59;18.60;99.90
59309;DHT22;48433;53.016;-2.260;2023-08-24T04:47:28;18.60;99.90
59309;DHT22;48433;53.016;-2.260;2023-08-24T04:49:55;18.60;99.90
59309;DHT22;48433;53.016;-2.260;2023-08-24T04:52:23;18.50;99.90
59309;DHT22;48433;53.016;-2.260;2023-08-24T04:54:51;18.50;99.90
59309;DHT22;48433;53.016;-2.260;2023-08-24T04:57:18;18.60;99.90
59309;DHT22;48433;53.016;-2.260;2023-08-24T04:59:46;18.60;99.90
59309;DHT22;48433;53.016;-2.260;2023-08-24T05:02:14;18.50;99.90
59309;DHT22;48433;53.016;-2.260;2023-08-24T05:04:41;18.60;99.90
59309;DHT22;48433;53.016;-2.260;2023-08-24T05:07:10;18.60;99.90
59309;DHT22;48433;53.016;-2.260;2023-08-24T05:09:38;18.60;99.90
59309;DHT22;48433;53.016;-2.260;2023-08-24T05:12:05;18.60;99.90
59309;DHT22;48433;53.016;-2.260;2023-08-24T05:14:33;18.60;99.90
59309;DHT22;48433;53.016;-2.260;2023-08-24T05:17:01;18.60;99.90
59309;DHT22;48433;53.016;-2.260;2023-08-24T05:19:29;18.60;99.90
59309;DHT22;48433;53.016;-2.260;2023-08-24T05:21:57;18.60;99.90
59309;DHT22;48433;53.016;-2.260;2023-08-24T05:24:24;18.60;99.90
59309;DHT22;48433;53.016;-2.260;2023-08-24T05:26:52;18.70;99.90
59309;DHT22;48433;53.016;-2.260;2023-08-24T05:29:19;18.60;99.90
59309;DHT22;48433;53.016;-2.260;2023-08-24T05:31:47;18.60;99.90
59309;DHT22;48433;53.016;-2.260;2023-08-24T05:34:14;18.60;99.90
59309;DHT22;48433;53.016;-2.260;2023-08-24T05:36:42;18.70;99.90
59309;DHT22;48433;53.016;-2.260;2023-08-24T05:39:10;18.60;99.90
59309;DHT22;48433;53.016;-2.260;2023-08-24T05:41:38;18.60;99.90
59309;DHT22;48433;53.016;-2.260;2023-08-24T05:44:06;18.50;99.90
59309;DHT22;48433;53.016;-2.260;2023-08-24T05:49:01;18.50;99.90
59309;DHT22;48433;53.016;-2.260;2023-08-24T05:51:29;18.50;99.90
59309;DHT22;48433;53.016;-2.260;2023-08-24T05:53:57;18.50;99.90
59309;DHT22;48433;53.016;-2.260;2023-08-24T05:56:26;18.40;99.90
59309;DHT22;48433;53.016;-2.260;2023-08-24T05:58:54;18.30;99.90
59309;DHT22;48433;53.016;-2.260;2023-08-24T06:01:22;18.40;99.90
59309;DHT22;48433;53.016;-2.260;2023-08-24T06:03:50;18.40;99.90
59309;DHT22;48433;53.016;-2.260;2023-08-24T06:06:18;18.40;99.90
59309;DHT22;48433;53.016;-2.260;2023-08-24T06:08:46;18.30;99.90
59309;DHT22;48433;53.016;-2.260;2023-08-24T06:11:13;18.40;99.90
59309;DHT22;48433;53.016;-2.260;2023-08-24T06:13:41;18.50;99.90
59309;DHT22;48433;53.016;-2.260;2023-08-24T06:16:08;18.50;99.90
59309;DHT22;48433;53.016;-2.260;2023-08-24T06:18:36;18.60;99.90
59309;DHT22;48433;53.016;-2.260;2023-08-24T06:21:03;18.60;99.90
59309;DHT22;48433;53.016;-2.260;2023-08-24T06:23:31;18.70;99.90
59309;DHT22;48433;53.016;-2.260;2023-08-24T06:25:59;18.80;99.90
59309;DHT22;48433;53.016;-2.260;2023-08-24T06:28:28;18.80;99.90
59309;DHT22;48433;53.016;-2.260;2023-08-24T06:30:56;18.80;99.90
59309;DHT22;48433;53.016;-2.260;2023-08-24T06:33:28;18.90;99.90
59309;DHT22;48433;53.016;-2.260;2023-08-24T06:35:58;18.90;99.90
59309;DHT22;48433;53.016;-2.260;2023-08-24T06:38:26;19.00;99.90
59309;DHT22;48433;53.016;-2.260;2023-08-24T06:40:54;19.00;99.90
59309;DHT22;48433;53.016;-2.260;2023-08-24T06:43:21;19.10;99.90
59309;DHT22;48433;53.016;-2.260;2023-08-24T06:45:49;19.10;99.90
59309;DHT22;48433;53.016;-2.260;2023-08-24T06:48:17;19.20;99.90
59309;DHT22;48433;53.016;-2.260;2023-08-24T06:50:45;19.20;99.90
59309;DHT22;48433;53.016;-2.260;2023-08-24T06:53:13;19.30;99.90
59309;DHT22;48433;53.016;-2.260;2023-08-24T06:55:42;19.30;99.90
59309;DHT22;48433;53.016;-2.260;2023-08-24T06:58:09;19.40;99.90
59309;DHT22;48433;53.016;-2.260;2023-08-24T07:00:37;19.40;99.90
59309;DHT22;48433;53.016;-2.260;2023-08-24T07:03:05;19.50;99.90
59309;DHT22;48433;53.016;-2.260;2023-08-24T07:08:04;19.70;99.90
59309;DHT22;48433;53.016;-2.260;2023-08-24T07:10:33;19.80;99.90
59309;DHT22;48433;53.016;-2.260;2023-08-24T07:13:00;19.80;99.90
59309;DHT22;48433;53.016;-2.260;2023-08-24T07:15:28;19.70;99.90
59309;DHT22;48433;53.016;-2.260;2023-08-24T07:17:56;19.70;99.90
59309;DHT22;48433;53.016;-2.260;2023-08-24T07:20:23;19.60;99.90
59309;DHT22;48433;53.016;-2.260;2023-08-24T07:22:51;19.60;99.90
59309;DHT22;48433;53.016;-2.260;2023-08-24T07:25:19;19.60;99.90
59309;DHT22;48433;53.016;-2.260;2023-08-24T07:27:47;19.70;99.90
59309;DHT22;48433;53.016;-2.260;2023-08-24T07:30:16;19.80;99.90
59309;DHT22;48433;53.016;-2.260;2023-08-24T07:33:01;19.80;99.90
59309;DHT22;48433;53.016;-2.260;2023-08-24T07:35:31;19.80;99.90
59309;DHT22;48433;53.016;-2.260;2023-08-24T07:38:00;19.80;99.90
59309;DHT22;48433;53.016;-2.260;2023-08-24T07:40:28;19.90;99.90
59309;DHT22;48433;53.016;-2.260;2023-08-24T07:42:55;20.00;99.90
59309;DHT22;48433;53.016;-2.260;2023-08-24T07:45:24;20.10;99.90
59309;DHT22;48433;53.016;-2.260;2023-08-24T07:47:52;20.30;99.90
59309;DHT22;48433;53.016;-2.260;2023-08-24T07:50:20;20.40;99.90
59309;DHT22;48433;53.016;-2.260;2023-08-24T07:52:49;20.70;99.90
59309;DHT22;48433;53.016;-2.260;2023-08-24T07:55:23;20.80;99.90
59309;DHT22;48433;53.016;-2.260;2023-08-24T07:57:51;21.00;99.90
59309;DHT22;48433;53.016;-2.260;2023-08-24T08:00:19;21.10;99.90
59309;DHT22;48433;53.016;-2.260;2023-08-24T08:02:50;21.20;99.90
59309;DHT22;48433;53.016;-2.260;2023-08-24T08:05:18;21.40;99.90
59309;DHT22;48433;53.016;-2.260;2023-08-24T08:07:46;22.00;99.90
59309;DHT22;48433;53.016;-2.260;2023-08-24T08:10:14;22.20;99.90
59309;DHT22;48433;53.016;-2.260;2023-08-24T08:12:45;22.70;99.90
59309;DHT22;48433;53.016;-2.260;2023-08-24T08:15:13;23.10;99.90
59309;DHT22;48433;53.016;-2.260;2023-08-24T08:17:41;23.40;99.90
59309;DHT22;48433;53.016;-2.260;2023-08-24T08:20:10;23.40;99.90
59309;DHT22;48433;53.016;-2.260;2023-08-24T08:22:39;23.70;99.90
59309;DHT22;48433;53.016;-2.260;2023-08-24T08:25:07;24.00;99.90
59309;DHT22;48433;53.016;-2.260;2023-08-24T08:27:35;24.20;99.90
59309;DHT22;48433;53.016;-2.260;2023-08-24T08:30:03;24.20;99.90
59309;DHT22;48433;53.016;-2.260;2023-08-24T08:32:34;24.00;99.90
59309;DHT22;48433;53.016;-2.260;2023-08-24T08:35:02;23.70;99.90
59309;DHT22;48433;53.016;-2.260;2023-08-24T08:37:31;23.20;99.90
59309;DHT22;48433;53.016;-2.260;2023-08-24T08:39:59;23.10;99.90
59309;DHT22;48433;53.016;-2.260;2023-08-24T08:42:29;22.90;99.90
59309;DHT22;48433;53.016;-2.260;2023-08-24T08:44:57;22.80;99.90
59309;DHT22;48433;53.016;-2.260;2023-08-24T08:47:27;22.70;99.90
59309;DHT22;48433;53.016;-2.260;2023-08-24T08:49:55;22.70;99.90
59309;DHT22;48433;53.016;-2.260;2023-08-24T08:52:22;22.60;99.90
59309;DHT22;48433;53.016;-2.260;2023-08-24T08:54:52;22.60;99.90
59309;DHT22;48433;53.016;-2.260;2023-08-24T08:57:23;22.50;99.90
59309;DHT22;48433;53.016;-2.260;2023-08-24T08:59:52;22.50;99.90
59309;DHT22;48433;53.016;-2.260;2023-08-24T09:02:21;22.30;99.90
59309;DHT22;48433;53.016;-2.260;2023-08-24T09:04:51;22.10;99.90
59309;DHT22;48433;53.016;-2.260;2023-08-24T09:07:19;22.00;99.90
59309;DHT22;48433;53.016;-2.260;2023-08-24T09:09:48;21.90;99.90
59309;DHT22;48433;53.016;-2.260;2023-08-24T09:12:16;21.90;99.90
59309;DHT22;48433;53.016;-2.260;2023-08-24T09:14:43;21.80;99.90
59309;DHT22;48433;53.016;-2.260;2023-08-24T09:17:20;21.70;99.90
59309;DHT22;48433;53.016;-2.260;2023-08-24T09:19:50;21.60;99.90
59309;DHT22;48433;53.016;-2.260;2023-08-24T09:22:19;21.60;99.90
59309;DHT22;48433;53.016;-2.260;2023-08-24T09:24:48;21.60;99.90
59309;DHT22;48433;53.016;-2.260;2023-08-24T09:27:20;21.70;99.90
59309;DHT22;48433;53.016;-2.260;2023-08-24T09:29:52;21.70;99.90
59309;DHT22;48433;53.016;-2.260;2023-08-24T09:32:29;21.70;99.90
59309;DHT22;48433;53.016;-2.260;2023-08-24T09:35:24;21.50;99.90
59309;DHT22;48433;53.016;-2.260;2023-08-24T09:37:53;21.40;99.90
59309;DHT22;48433;53.016;-2.260;2023-08-24T09:40:25;21.20;99.90
59309;DHT22;48433;53.016;-2.260;2023-08-24T09:45:23;21.00;99.90
59309;DHT22;48433;53.016;-2.260;2023-08-24T09:47:51;20.90;99.90
59309;DHT22;48433;53.016;-2.260;2023-08-24T09:50:22;20.80;99.90
59309;DHT22;48433;53.016;-2.260;2023-08-24T09:52:53;20.60;99.90
59309;DHT22;48433;53.016;-2.260;2023-08-24T09:55:25;20.40;99.90
59309;DHT22;48433;53.016;-2.260;2023-08-24T09:57:58;20.40;99.90
59309;DHT22;48433;53.016;-2.260;2023-08-24T10:00:27;20.30;99.90
59309;DHT22;48433;53.016;-2.260;2023-08-24T10:02:56;20.40;99.90
59309;DHT22;48433;53.016;-2.260;2023-08-24T10:05:24;20.40;99.90
59309;DHT22;48433;53.016;-2.260;2023-08-24T10:07:56;20.40;99.90
59309;DHT22;48433;53.016;-2.260;2023-08-24T10:10:26;20.50;99.90
59309;DHT22;48433;53.016;-2.260;2023-08-24T10:13:00;20.60;99.90
59309;DHT22;48433;53.016;-2.260;2023-08-24T10:15:32;20.60;99.90
59309;DHT22;48433;53.016;-2.260;2023-08-24T10:18:01;20.70;99.90
59309;DHT22;48433;53.016;-2.260;2023-08-24T10:20:29;20.80;99.90
59309;DHT22;48433;53.016;-2.260;2023-08-24T10:22:57;20.90;99.90
59309;DHT22;48433;53.016;-2.260;2023-08-24T10:25:30;21.30;99.90
59309;DHT22;48433;53.016;-2.260;2023-08-24T10:27:58;21.40;99.90
59309;DHT22;48433;53.016;-2.260;2023-08-24T10:32:58;21.80;99.90
59309;DHT22;48433;53.016;-2.260;2023-08-24T10:35:27;22.00;99.90
59309;DHT22;48433;53.016;-2.260;2023-08-24T10:37:58;22.00;99.90
59309;DHT22;48433;53.016;-2.260;2023-08-24T10:40:33;22.00;99.90
59309;DHT22;48433;53.016;-2.260;2023-08-24T10:43:04;21.80;99.90
59309;DHT22;48433;53.016;-2.260;2023-08-24T10:51:19;21.50;99.90
59309;DHT22;48433;53.016;-2.260;2023-08-24T10:56:20;21.50;99.90
59309;DHT22;48433;53.016;-2.260;2023-08-24T10:59:26;21.10;99.90
59309;DHT22;48433;53.016;-2.260;2023-08-24T11:02:19;21.20;99.90
59309;DHT22;48433;53.016;-2.260;2023-08-24T11:07:34;21.00;99.90
59309;DHT22;48433;53.016;-2.260;2023-08-24T11:10:11;20.90;99.90
59309;DHT22;48433;53.016;-2.260;2023-08-24T11:15:44;20.70;99.90
59309;DHT22;48433;53.016;-2.260;2023-08-24T11:18:24;20.80;99.90
59309;DHT22;48433;53.016;-2.260;2023-08-24T11:20:55;20.80;99.90
59309;DHT22;48433;53.016;-2.260;2023-08-24T11:23:24;20.80;99.90
59309;DHT22;48433;53.016;-2.260;2023-08-24T11:25:54;20.90;99.90
59309;DHT22;48433;53.016;-2.260;2023-08-24T11:28:29;21.00;99.90
59309;DHT22;48433;53.016;-2.260;2023-08-24T11:30:59;21.20;99.90
59309;DHT22;48433;53.016;-2.260;2023-08-24T11:33:34;21.50;99.90
59309;DHT22;48433;53.016;-2.260;2023-08-24T11:36:05;21.80;99.90
59309;DHT22;48433;53.016;-2.260;2023-08-24T11:38:42;22.20;99.90
59309;DHT22;48433;53.016;-2.260;2023-08-24T11:41:13;22.30;99.90
59309;DHT22;48433;53.016;-2.260;2023-08-24T11:43:43;22.30;99.90
59309;DHT22;48433;53.016;-2.260;2023-08-24T11:46:12;22.40;99.90
59309;DHT22;48433;53.016;-2.260;2023-08-24T11:48:40;22.40;99.90
59309;DHT22;48433;53.016;-2.260;2023-08-24T11:51:12;22.50;99.90
59309;DHT22;48433;53.016;-2.260;2023-08-24T11:53:43;22.70;99.90
59309;DHT22;48433;53.016;-2.260;2023-08-24T11:56:11;23.00;99.90
59309;DHT22;48433;53.016;-2.260;2023-08-24T11:58:40;23.30;99.90
59309;DHT22;48433;53.016;-2.260;2023-08-24T12:01:09;23.40;99.90
59309;DHT22;48433;53.016;-2.260;2023-08-24T12:03:40;23.60;99.90
59309;DHT22;48433;53.016;-2.260;2023-08-24T12:06:15;23.90;99.10
59309;DHT22;48433;53.016;-2.260;2023-08-24T12:08:46;24.20;97.80
59309;DHT22;48433;53.016;-2.260;2023-08-24T12:11:18;24.40;98.00
59309;DHT22;48433;53.016;-2.260;2023-08-24T12:13:50;24.40;98.00
59309;DHT22;48433;53.016;-2.260;2023-08-24T12:16:19;24.50;97.80
59309;DHT22;48433;53.016;-2.260;2023-08-24T12:18:58;24.40;97.20
59309;DHT22;48433;53.016;-2.260;2023-08-24T12:21:27;24.30;97.50
59309;DHT22;48433;53.016;-2.260;2023-08-24T12:24:04;24.20;97.70
59309;DHT22;48433;53.016;-2.260;2023-08-24T12:26:36;24.00;97.70
59309;DHT22;48433;53.016;-2.260;2023-08-24T12:29:05;23.80;97.50
59309;DHT22;48433;53.016;-2.260;2023-08-24T12:31:34;23.70;97.70
59309;DHT22;48433;53.016;-2.260;2023-08-24T12:34:05;23.50;97.90
59309;DHT22;48433;53.016;-2.260;2023-08-24T12:36:36;23.40;98.10
59309;DHT22;48433;53.016;-2.260;2023-08-24T12:39:05;23.30;97.90
59309;DHT22;48433;53.016;-2.260;2023-08-24T12:41:33;23.10;98.00
59309;DHT22;48433;53.016;-2.260;2023-08-24T12:44:01;23.10;98.50
59309;DHT22;48433;53.016;-2.260;2023-08-24T12:46:34;22.90;98.60
59309;DHT22;48433;53.016;-2.260;2023-08-24T12:49:02;22.80;98.60
59309;DHT22;48433;53.016;-2.260;2023-08-24T12:51:30;22.90;99.00
59309;DHT22;48433;53.016;-2.260;2023-08-24T12:53:58;22.90;99.10
59309;DHT22;48433;53.016;-2.260;2023-08-24T12:56:26;23.00;99.20
59309;DHT22;48433;53.016;-2.260;2023-08-24T12:58:53;23.00;98.80
59309;DHT22;48433;53.016;-2.260;2023-08-24T13:01:21;23.20;99.00
59309;DHT22;48433;53.016;-2.260;2023-08-24T13:03:49;23.50;98.90
59309;DHT22;48433;53.016;-2.260;2023-08-24T13:06:16;23.90;98.30
59309;DHT22;48433;53.016;-2.260;2023-08-24T13:08:47;24.20;97.50
59309;DHT22;48433;53.016;-2.260;2023-08-24T13:11:15;24.40;97.50
59309;DHT22;48433;53.016;-2.260;2023-08-24T13:13:42;24.60;97.10
59309;DHT22;48433;53.016;-2.260;2023-08-24T13:16:10;24.80;96.90
59309;DHT22;48433;53.016;-2.260;2023-08-24T13:18:37;25.00;96.30
59309;DHT22;48433;53.016;-2.260;2023-08-24T13:23:33;25.10;95.80
59309;DHT22;48433;53.016;-2.260;2023-08-24T13:26:01;25.00;95.90
59309;DHT22;48433;53.016;-2.260;2023-08-24T13:28:29;25.00;95.80
59309;DHT22;48433;53.016;-2.260;2023-08-24T13:30:57;24.90;95.80
59309;DHT22;48433;53.016;-2.260;2023-08-24T13:33:25;24.80;95.70
59309;DHT22;48433;53.016;-2.260;2023-08-24T13:35:52;24.80;96.10
59309;DHT22;48433;53.016;-2.260;2023-08-24T13:38:20;24.50;98.10
59309;DHT22;48433;53.016;-2.260;2023-08-24T13:40:48;24.30;99.70
59309;DHT22;48433;53.016;-2.260;2023-08-24T13:43:17;24.00;99.90
59309;DHT22;48433;53.016;-2.260;2023-08-24T13:45:47;23.60;99.90
59309;DHT22;48433;53.016;-2.260;2023-08-24T13:48:15;23.30;99.90
59309;DHT22;48433;53.016;-2.260;2023-08-24T13:50:50;23.30;99.90
59309;DHT22;48433;53.016;-2.260;2023-08-24T13:53:18;23.40;99.70
59309;DHT22;48433;53.016;-2.260;2023-08-24T13:55:46;23.60;99.30
59309;DHT22;48433;53.016;-2.260;2023-08-24T13:58:14;24.20;97.90
59309;DHT22;48433;53.016;-2.260;2023-08-24T14:00:41;24.40;97.40
59309;DHT22;48433;53.016;-2.260;2023-08-24T14:08:09;24.40;96.50
59309;DHT22;48433;53.016;-2.260;2023-08-24T14:10:37;24.30;96.50
59309;DHT22;48433;53.016;-2.260;2023-08-24T14:13:05;24.40;96.70
59309;DHT22;48433;53.016;-2.260;2023-08-24T14:15:32;24.40;96.40
59309;DHT22;48433;53.016;-2.260;2023-08-24T14:22:57;24.40;95.40
59309;DHT22;48433;53.016;-2.260;2023-08-24T14:25:25;24.60;95.50
59309;DHT22;48433;53.016;-2.260;2023-08-24T14:27:52;24.80;94.70
59309;DHT22;48433;53.016;-2.260;2023-08-24T14:30:32;24.80;94.90
59309;DHT22;48433;53.016;-2.260;2023-08-24T14:32:59;24.80;94.80
59309;DHT22;48433;53.016;-2.260;2023-08-24T14:35:27;24.80;94.80
59309;DHT22;48433;53.016;-2.260;2023-08-24T14:37:57;24.60;94.60
59309;DHT22;48433;53.016;-2.260;2023-08-24T14:40:25;24.50;94.80
59309;DHT22;48433;53.016;-2.260;2023-08-24T14:42:52;24.40;94.70
59309;DHT22;48433;53.016;-2.260;2023-08-24T14:45:22;24.20;95.00
59309;DHT22;48433;53.016;-2.260;2023-08-24T14:47:50;24.00;95.00
59309;DHT22;48433;53.016;-2.260;2023-08-24T14:50:18;24.00;95.20
59309;DHT22;48433;53.016;-2.260;2023-08-24T14:52:46;23.90;95.10
59309;DHT22;48433;53.016;-2.260;2023-08-24T14:55:13;23.90;95.10
59309;DHT22;48433;53.016;-2.260;2023-08-24T14:57:41;23.70;94.60
59309;DHT22;48433;53.016;-2.260;2023-08-24T15:00:09;23.80;94.90
59309;DHT22;48433;53.016;-2.260;2023-08-24T15:02:40;23.70;95.10
59309;DHT22;48433;53.016;-2.260;2023-08-24T15:05:10;23.80;95.40
59309;DHT22;48433;53.016;-2.260;2023-08-24T15:07:38;23.80;95.10
59309;DHT22;48433;53.016;-2.260;2023-08-24T15:10:06;23.80;95.40
59309;DHT22;48433;53.016;-2.260;2023-08-24T15:12:33;23.90;95.50
59309;DHT22;48433;53.016;-2.260;2023-08-24T15:15:02;24.10;95.50
59309;DHT22;48433;53.016;-2.260;2023-08-24T15:17:32;24.20;94.60
59309;DHT22;48433;53.016;-2.260;2023-08-24T15:20:00;24.20;94.80
59309;DHT22;48433;53.016;-2.260;2023-08-24T15:22:27;24.30;94.70
59309;DHT22;48433;53.016;-2.260;2023-08-24T15:24:57;24.30;94.50
59309;DHT22;48433;53.016;-2.260;2023-08-24T15:27:25;24.10;94.10
59309;DHT22;48433;53.016;-2.260;2023-08-24T15:29:53;24.10;94.30
59309;DHT22;48433;53.016;-2.260;2023-08-24T15:32:20;23.90;94.30
59309;DHT22;48433;53.016;-2.260;2023-08-24T15:34:48;23.80;94.40
59309;DHT22;48433;53.016;-2.260;2023-08-24T15:37:16;23.70;94.10
59309;DHT22;48433;53.016;-2.260;2023-08-24T15:39:44;23.70;94.40
59309;DHT22;48433;53.016;-2.260;2023-08-24T15:42:12;23.70;94.30
59309;DHT22;48433;53.016;-2.260;2023-08-24T15:44:40;23.80;94.20
59309;DHT22;48433;53.016;-2.260;2023-08-24T15:47:08;23.90;93.90
59309;DHT22;48433;53.016;-2.260;2023-08-24T15:49:36;23.80;94.10
59309;DHT22;48433;53.016;-2.260;2023-08-24T15:52:03;23.80;94.10
59309;DHT22;48433;53.016;-2.260;2023-08-24T15:54:31;23.70;94.10
59309;DHT22;48433;53.016;-2.260;2023-08-24T15:56:59;23.60;94.30
59309;DHT22;48433;53.016;-2.260;2023-08-24T15:59:26;23.50;93.80
59309;DHT22;48433;53.016;-2.260;2023-08-24T16:01:54;23.60;94.10
59309;DHT22;48433;53.016;-2.260;2023-08-24T16:04:21;23.70;94.00
59309;DHT22;48433;53.016;-2.260;2023-08-24T16:06:49;23.70;93.80
59309;DHT22;48433;53.016;-2.260;2023-08-24T16:09:17;23.60;93.60
59309;DHT22;48433;53.016;-2.260;2023-08-24T16:11:45;23.60;93.70
59309;DHT22;48433;53.016;-2.260;2023-08-24T16:14:12;23.40;93.60
59309;DHT22;48433;53.016;-2.260;2023-08-24T16:16:40;23.10;93.70
59309;DHT22;48433;53.016;-2.260;2023-08-24T16:19:08;22.80;93.80
59309;DHT22;48433;53.016;-2.260;2023-08-24T16:21:36;22.70;94.30
59309;DHT22;48433;53.016;-2.260;2023-08-24T16:24:04;22.50;94.30
59309;DHT22;48433;53.016;-2.260;2023-08-24T16:26:31;22.40;94.50
59309;DHT22;48433;53.016;-2.260;2023-08-24T16:28:59;22.30;94.50
59309;DHT22;48433;53.016;-2.260;2023-08-24T16:31:26;22.20;94.80
59309;DHT22;48433;53.016;-2.260;2023-08-24T16:33:57;22.20;94.90
59309;DHT22;48433;53.016;-2.260;2023-08-24T16:36:25;22.20;94.80
59309;DHT22;48433;53.016;-2.260;2023-08-24T16:38:52;22.10;94.30
59309;DHT22;48433;53.016;-2.260;2023-08-24T16:41:20;22.10;94.50
59309;DHT22;48433;53.016;-2.260;2023-08-24T16:43:48;22.00;94.50
59309;DHT22;48433;53.016;-2.260;2023-08-24T16:46:15;22.00;94.50
59309;DHT22;48433;53.016;-2.260;2023-08-24T16:48:43;21.90;94.40
59309;DHT22;48433;53.016;-2.260;2023-08-24T16:51:11;21.90;94.60
59309;DHT22;48433;53.016;-2.260;2023-08-24T16:53:38;21.90;94.60
59309;DHT22;48433;53.016;-2.260;2023-08-24T16:56:06;21.80;94.70
59309;DHT22;48433;53.016;-2.260;2023-08-24T16:58:34;21.70;94.50
59309;DHT22;48433;53.016;-2.260;2023-08-24T17:01:06;21.70;94.80
59309;DHT22;48433;53.016;-2.260;2023-08-24T17:03:34;21.60;94.90
59309;DHT22;48433;53.016;-2.260;2023-08-24T17:06:01;21.50;94.80
59309;DHT22;48433;53.016;-2.260;2023-08-24T17:08:29;21.50;94.60